Time;durP1;ratioP1;P1;durP2;ratioP2;P2;SDS_P1;SDS_P2;PMS_P1;PMS_P2;Temp;Humidity;BMP_temperature;BMP_pressure;BME280_temperature;BME280_humidity;BME280_pressure;Samples;Min_cycle;Max_cycle;Signal;HPM_P1;HPM_P2
2023/03/24 00:01:37;;;;;;;0.77;0.73;;;;;;;13.55;50.47;99676.41;5323372;26;33901;-85
2023/03/24 00:04:06;;;;;;;1.75;1.50;;;;;;;13.79;49.51;99675.91;5304826;26;32561;-85
2023/03/24 00:06:35;;;;;;;6.62;2.65;;;;;;;13.61;49.75;99674.34;5323410;26;34476;-85
2023/03/24 00:09:05;;;;;;;0.57;0.57;;;;;;;13.39;50.37;99675.59;5305002;26;34055;-85
2023/03/24 00:11:37;;;;;;;0.93;0.90;;;;;;;13.24;51.05;99668.47;5341517;26;33101;-86
2023/03/24 00:14:10;;;;;;;1.17;1.02;;;;;;;13.24;51.33;99668.47;5305608;26;32867;-85
2023/03/24 00:16:44;;;;;;;0.50;0.50;;;;;;;13.16;51.07;99665.41;5322447;26;33377;-86
2023/03/24 00:19:13;;;;;;;1.10;1.08;;;;;;;13.05;51.28;99669.50;5305259;26;32727;-88
2023/03/24 00:21:43;;;;;;;1.20;1.10;;;;;;;12.92;52.18;99668.47;5322956;26;32548;-87
2023/03/24 00:24:13;;;;;;;3.67;1.92;;;;;;;12.98;52.20;99676.06;5304896;26;33639;-87
2023/03/24 00:26:44;;;;;;;0.70;0.68;;;;;;;12.91;52.65;99669.38;5323657;26;34093;-88
2023/03/24 00:29:12;;;;;;;1.77;1.17;;;;;;;12.87;52.72;99669.66;5322538;26;34387;-88
2023/03/24 00:31:41;;;;;;;1.80;1.67;;;;;;;12.90;52.42;99665.03;5304476;26;32770;-88
2023/03/24 00:34:10;;;;;;;3.10;1.85;;;;;;;12.85;52.71;99663.59;5304947;26;33027;-86
2023/03/24 00:36:38;;;;;;;1.15;0.90;;;;;;;12.75;53.19;99655.28;5322877;26;34113;-86
2023/03/24 00:39:07;;;;;;;1.75;1.37;;;;;;;12.80;52.94;99654.09;5341095;26;33857;-86
2023/03/24 00:41:35;;;;;;;0.90;0.88;;;;;;;12.93;52.25;99645.47;5343085;26;34055;-86
2023/03/24 00:44:04;;;;;;;3.65;1.35;;;;;;;12.84;52.03;99645.97;5341319;26;33316;-87
2023/03/24 00:46:33;;;;;;;1.98;1.87;;;;;;;12.59;52.72;99643.84;5304683;26;33374;-87
2023/03/24 00:49:05;;;;;;;1.45;1.35;;;;;;;12.57;53.17;99639.44;5341524;26;34370;-87
2023/03/24 00:51:37;;;;;;;0.30;0.30;;;;;;;12.61;53.08;99636.66;5323460;26;34171;-87
2023/03/24 00:54:06;;;;;;;1.12;1.08;;;;;;;12.65;52.75;99633.75;5304777;26;33040;-87
2023/03/24 00:56:36;;;;;;;0.62;0.62;;;;;;;12.61;52.79;99626.06;5323198;26;33830;-87
2023/03/24 00:59:08;;;;;;;5.28;1.27;;;;;;;12.53;53.37;99623.81;5304441;26;33806;-86
2023/03/24 01:01:39;;;;;;;1.33;1.20;;;;;;;12.55;53.42;99611.34;5287345;26;31569;-86
2023/03/24 01:04:09;;;;;;;2.37;0.90;;;;;;;12.55;53.38;99617.50;5304776;26;32883;-86
2023/03/24 01:06:38;;;;;;;0.95;0.95;;;;;;;12.63;53.12;99608.25;5304680;26;33011;-86
2023/03/24 01:09:07;;;;;;;4.60;3.60;;;;;;;12.74;52.59;99606.75;5324049;26;33934;-86
2023/03/24 01:11:38;;;;;;;2.13;1.93;;;;;;;12.55;52.73;99617.50;5324915;26;33208;-85
2023/03/24 01:14:08;;;;;;;2.92;1.55;;;;;;;12.73;52.02;99604.19;5306034;26;33306;-88
2023/03/24 01:16:38;;;;;;;0.50;0.40;;;;;;;12.72;52.04;99607.75;5324448;26;33312;-88
2023/03/24 01:19:07;;;;;;;1.12;1.05;;;;;;;12.52;52.43;99601.78;5323946;26;34437;-88
2023/03/24 01:21:38;;;;;;;2.08;0.95;;;;;;;12.37;53.26;99594.66;5287551;26;33424;-88
2023/03/24 01:24:07;;;;;;;0.62;0.62;;;;;;;12.26;53.68;99591.75;5306054;26;33440;-87
2023/03/24 01:26:35;;;;;;;5.65;2.75;;;;;;;12.23;53.97;99599.84;5305790;26;32702;-88
2023/03/24 01:29:03;;;;;;;2.42;1.27;;;;;;;12.22;54.02;99593.72;5304956;26;32596;-88
2023/03/24 01:31:32;;;;;;;3.22;0.50;;;;;;;12.30;53.45;99585.38;5324438;26;32861;-88
2023/03/24 01:34:00;;;;;;;2.25;1.52;;;;;;;12.31;53.11;99584.41;5305066;26;33101;-88
2023/03/24 01:36:28;;;;;;;1.33;0.90;;;;;;;12.16;53.37;99582.59;5305564;26;32580;-88
2023/03/24 01:38:59;;;;;;;1.10;1.10;;;;;;;12.21;53.38;99581.41;5305707;26;35226;-87
2023/03/24 01:41:33;;;;;;;1.45;1.35;;;;;;;12.19;53.42;99582.41;5305484;26;32167;-88
2023/03/24 01:44:22;;;;;;;0.68;0.62;;;;;;;12.37;52.68;99572.63;5323729;26;33228;-87
2023/03/24 01:46:51;;;;;;;1.45;1.30;;;;;;;12.02;53.82;99581.53;5306119;26;33705;-89
2023/03/24 01:49:22;;;;;;;0.85;0.85;;;;;;;12.15;53.67;99583.53;5324325;26;33918;-89
2023/03/24 01:51:56;;;;;;;3.50;2.42;;;;;;;12.13;53.48;99580.13;5305819;26;32547;-89
2023/03/24 01:54:29;;;;;;;1.45;1.12;;;;;;;12.36;52.75;99577.09;5324008;26;33882;-89
2023/03/24 01:57:06;;;;;;;1.48;1.37;;;;;;;12.43;52.65;99575.78;5305662;26;34005;-89
2023/03/24 01:59:37;;;;;;;0.60;0.60;;;;;;;12.03;53.92;99575.31;5287918;26;33236;-87
2023/03/24 02:02:06;;;;;;;4.05;0.95;;;;;;;11.84;54.58;99586.94;5287609;26;32657;-86
2023/03/24 02:04:38;;;;;;;0.25;0.25;;;;;;;11.65;55.54;99587.00;5305374;26;33913;-87
2023/03/24 02:07:13;;;;;;;1.60;1.50;;;;;;;11.72;55.55;99577.81;5287705;26;33373;-87
2023/03/24 02:12:17;;;;;;;1.83;1.62;;;;;;;11.67;55.97;99569.25;5306775;26;32444;-87
2023/03/24 02:14:45;;;;;;;2.42;1.33;;;;;;;11.94;54.74;99567.00;5323670;26;33638;-86
2023/03/24 02:17:13;;;;;;;22.58;1.65;;;;;;;11.92;54.47;99574.19;5305596;26;32883;-87
2023/03/24 02:19:57;;;;;;;1.15;0.82;;;;;;;12.00;54.14;99571.97;5304744;26;33458;-87
2023/03/24 02:22:35;;;;;;;1.55;1.48;;;;;;;11.64;55.23;99569.44;5323107;26;32867;-87
2023/03/24 02:25:25;;;;;;;1.12;1.02;;;;;;;11.52;56.00;99571.75;5305242;26;33789;-86
2023/03/24 02:28:14;;;;;;;1.10;1.08;;;;;;;11.57;55.97;99566.25;5323375;26;33723;-86
2023/03/24 02:30:54;;;;;;;0.82;0.82;;;;;;;11.55;56.24;99562.84;5323065;26;34637;-87
2023/03/24 02:33:57;;;;;;;1.58;1.48;;;;;;;11.51;56.22;99569.22;5323978;26;32945;-87
2023/03/24 02:36:25;;;;;;;;;;;;;;;11.70;55.39;99569.97;5305770;26;32592;-86
2023/03/24 02:39:11;;;;;;;0.22;0.22;;;;;;;11.76;54.85;99580.22;5323533;26;33307;-86
2023/03/24 02:41:46;;;;;;;3.92;1.35;;;;;;;11.82;54.82;99579.09;5287212;26;33188;-87
2023/03/24 02:44:41;;;;;;;2.40;1.55;;;;;;;11.65;55.40;99579.09;5305218;26;32214;-87
2023/03/24 02:47:19;;;;;;;2.10;1.65;;;;;;;11.33;56.08;99572.78;5305298;26;32375;-87
2023/03/24 02:49:57;;;;;;;4.28;2.62;;;;;;;10.98;58.16;99575.41;5269866;26;34078;-87
2023/03/24 02:52:43;;;;;;;0.80;0.80;;;;;;;10.99;58.43;99567.37;5323653;26;34569;-87
2023/03/24 02:55:20;;;;;;;1.30;1.30;;;;;;;11.06;58.07;99552.06;5287577;26;32390;-85
2023/03/24 02:57:59;;;;;;;1.70;1.60;;;;;;;11.09;57.53;99551.09;5323680;26;33892;-86
2023/03/24 03:01:10;;;;;;;0.90;0.90;;;;;;;11.26;57.21;99540.53;5324125;26;32816;-85
2023/03/24 03:03:47;;;;;;;0.73;0.43;;;;;;;11.10;57.59;99545.72;5305637;26;33314;-86
2023/03/24 03:06:21;;;;;;;3.05;0.98;;;;;;;11.05;57.85;99552.16;5305304;26;32673;-87
2023/03/24 03:08:49;;;;;;;1.80;1.70;;;;;;;11.10;57.51;99548.34;5305370;26;33875;-86
2023/03/24 03:11:17;;;;;;;1.60;1.50;;;;;;;11.17;57.36;99535.69;5305602;26;33631;-86
2023/03/24 03:13:56;;;;;;;0.65;0.57;;;;;;;11.23;56.89;99530.09;5296182;26;33572;-85
2023/03/24 03:16:37;;;;;;;1.05;1.05;;;;;;;11.31;56.60;99530.56;5304605;26;33835;-85
2023/03/24 03:19:16;;;;;;;1.12;1.02;;;;;;;11.46;55.76;99540.34;5324399;26;33329;-85
2023/03/24 03:21:48;;;;;;;1.10;0.95;;;;;;;11.11;57.10;99546.56;5323911;26;33713;-85
2023/03/24 03:24:18;;;;;;;1.12;1.08;;;;;;;11.50;55.68;99541.06;5323712;26;34605;-85
2023/03/24 03:26:47;;;;;;;15.25;1.60;;;;;;;11.35;55.68;99537.41;5323510;26;33713;-84
2023/03/24 03:29:20;;;;;;;1.37;1.27;;;;;;;11.16;56.33;99534.00;5323131;26;32694;-84
2023/03/24 03:31:57;;;;;;;0.55;0.55;;;;;;;11.05;57.15;99528.37;5323197;26;33638;-84
2023/03/24 03:34:36;;;;;;;1.40;1.20;;;;;;;11.16;56.99;99528.72;5324651;26;33195;-85
2023/03/24 03:37:26;;;;;;;9.05;1.87;;;;;;;11.15;57.25;99530.47;5305292;26;32574;-85
2023/03/24 03:39:57;;;;;;;0.93;0.77;;;;;;;11.49;55.32;99534.91;5343069;26;33997;-84
2023/03/24 03:42:26;;;;;;;2.67;1.23;;;;;;;11.47;55.12;99541.22;5304665;26;33023;-86
2023/03/24 03:44:55;;;;;;;0.45;0.45;;;;;;;11.08;56.29;99544.09;5323729;26;33140;-86
2023/03/24 03:47:23;;;;;;;1.25;1.25;;;;;;;10.97;56.95;99539.34;5287085;26;31967;-86
2023/03/24 03:49:53;;;;;;;1.27;1.27;;;;;;;10.83;57.85;99550.59;5305970;26;32705;-86
2023/03/24 03:52:23;;;;;;;2.37;1.12;;;;;;;10.86;57.55;99534.56;5305472;26;32827;-88
2023/03/24 03:54:54;;;;;;;1.35;1.25;;;;;;;10.87;57.51;99538.94;5287168;26;33503;-87
2023/03/24 03:57:24;;;;;;;1.52;0.73;;;;;;;10.87;57.82;99536.31;5323853;26;33488;-86
2023/03/24 04:00:10;;;;;;;1.50;1.40;;;;;;;10.94;57.57;99537.69;5306444;26;33116;-85
2023/03/24 04:02:47;;;;;;;6.75;1.05;;;;;;;11.05;57.53;99531.03;5324560;26;34583;-86
2023/03/24 04:05:35;;;;;;;2.47;1.05;;;;;;;11.13;57.33;99534.16;5306625;26;33788;-86
2023/03/24 04:08:07;;;;;;;4.03;0.98;;;;;;;11.12;57.61;99524.50;5323684;26;34473;-86
2023/03/24 04:11:08;;;;;;;0.73;0.73;;;;;;;11.07;57.63;99518.59;5305428;26;33647;-85
2023/03/24 04:13:49;;;;;;;3.92;1.98;;;;;;;11.03;57.68;99510.81;5287369;26;34559;-85
2023/03/24 04:16:51;;;;;;;1.27;1.17;;;;;;;11.04;57.69;99519.59;5343365;26;34626;-84
2023/03/24 04:19:31;;;;;;;3.05;1.75;;;;;;;11.13;57.23;99528.84;5323796;26;33824;-84
2023/03/24 04:22:31;;;;;;;0.95;0.95;;;;;;;11.17;56.70;99523.34;5323480;26;33476;-84
2023/03/24 04:25:28;;;;;;;0.70;0.70;;;;;;;10.95;57.31;99528.84;5323872;26;33609;-84
2023/03/24 04:28:04;;;;;;;0.88;0.85;;;;;;;11.03;57.19;99526.69;5316255;26;34079;-84
2023/03/24 04:30:43;;;;;;;0.77;0.77;;;;;;;11.00;57.61;99520.69;5322762;26;32532;-84
2023/03/24 04:33:21;;;;;;;3.67;2.00;;;;;;;11.14;56.74;99512.06;5270042;26;32177;-85
2023/03/24 04:35:54;;;;;;;1.45;1.02;;;;;;;10.97;57.56;99515.56;5305277;26;33715;-85
2023/03/24 04:38:29;;;;;;;1.45;0.98;;;;;;;11.00;57.16;99510.97;5322861;26;33624;-87
2023/03/24 04:41:01;;;;;;;1.75;1.65;;;;;;;11.00;56.86;99516.25;5287611;26;32019;-86
2023/03/24 04:43:35;;;;;;;1.48;1.37;;;;;;;10.88;57.14;99526.59;5288871;26;32735;-86
2023/03/24 04:46:10;;;;;;;1.85;1.58;;;;;;;10.88;57.14;99527.44;5324277;26;33965;-87
2023/03/24 04:48:39;;;;;;;6.85;3.33;;;;;;;10.87;57.12;99531.03;5306421;26;32445;-86
2023/03/24 04:51:11;;;;;;;1.02;1.02;;;;;;;10.86;57.09;99529.28;5287361;26;32550;-86
2023/03/24 04:53:45;;;;;;;1.33;1.12;;;;;;;10.84;57.16;99533.81;5324764;26;33352;-86
2023/03/24 04:56:26;;;;;;;4.78;2.70;;;;;;;10.89;57.04;99526.50;5305748;26;33459;-87
2023/03/24 04:58:57;;;;;;;2.58;1.48;;;;;;;10.96;57.36;99534.97;5305334;26;33191;-87
2023/03/24 05:04:08;;;;;;;0.40;0.35;;;;;;;10.89;57.39;99533.56;5326067;26;33711;-87
2023/03/24 05:06:36;;;;;;;29.95;1.48;;;;;;;10.87;57.50;99536.31;5305285;26;33057;-87
2023/03/24 05:09:05;;;;;;;1.23;1.12;;;;;;;10.98;57.37;99543.69;5324181;26;33346;-87
2023/03/24 05:11:35;;;;;;;0.70;0.70;;;;;;;10.97;57.41;99545.47;5324185;26;32540;-87
2023/03/24 05:14:05;;;;;;;1.52;1.35;;;;;;;11.13;56.92;99542.06;5323895;26;34127;-86
2023/03/24 05:16:35;;;;;;;0.73;0.73;;;;;;;11.11;56.32;99544.81;5305105;26;32900;-86
2023/03/24 05:19:05;;;;;;;1.62;1.40;;;;;;;11.16;56.10;99547.22;5323166;26;34190;-86
2023/03/24 05:21:41;;;;;;;0.68;0.57;;;;;;;11.02;56.59;99554.03;5287190;26;33131;-86
2023/03/24 05:24:12;;;;;;;1.52;1.48;;;;;;;10.91;57.07;99540.47;5305938;26;34396;-85
2023/03/24 05:26:40;;;;;;;0.93;0.73;;;;;;;10.87;57.50;99546.88;5323222;26;33734;-86
2023/03/24 05:29:09;;;;;;;3.30;1.35;;;;;;;10.84;57.82;99543.50;5296388;26;33957;-87
2023/03/24 05:31:44;;;;;;;1.48;1.35;;;;;;;10.90;57.94;99548.50;5341816;26;33952;-87
2023/03/24 05:34:21;;;;;;;2.17;1.98;;;;;;;10.96;58.04;99546.38;5306994;26;33829;-87
2023/03/24 05:36:54;;;;;;;1.95;0.80;;;;;;;11.07;57.94;99547.66;5287633;26;33170;-86
2023/03/24 05:39:24;;;;;;;1.75;1.65;;;;;;;10.98;58.21;99554.25;5338589;26;34632;-86
2023/03/24 05:41:56;;;;;;;5.00;1.98;;;;;;;11.24;57.26;99551.16;5324819;26;33166;-86
2023/03/24 05:44:34;;;;;;;1.33;1.20;;;;;;;11.35;57.11;99544.50;5306525;26;33457;-87
2023/03/24 05:47:05;;;;;;;1.58;1.48;;;;;;;11.26;57.02;99548.47;5305786;26;32568;-87
2023/03/24 05:49:33;;;;;;;0.82;0.82;;;;;;;11.23;57.38;99556.53;5305191;26;33392;-88
2023/03/24 05:52:01;;;;;;;0.98;0.93;;;;;;;11.32;57.31;99561.34;5323523;26;33024;-85
2023/03/24 05:54:32;;;;;;;2.55;1.67;;;;;;;11.42;57.43;99559.09;5317879;26;32562;-84
2023/03/24 05:57:07;;;;;;;1.25;1.25;;;;;;;11.60;57.15;99552.03;5321226;26;34640;-85
2023/03/24 05:59:40;;;;;;;0.82;0.82;;;;;;;11.51;57.54;99556.00;5302054;26;33747;-85
2023/03/24 06:02:15;;;;;;;2.83;2.25;;;;;;;11.94;56.60;99557.28;5320070;26;33269;-86
2023/03/24 06:04:47;;;;;;;17.33;3.35;;;;;;;12.11;56.52;99552.88;5303227;26;32981;-86
2023/03/24 06:07:25;;;;;;;0.75;0.75;;;;;;;12.09;57.27;99552.94;5322060;26;34523;-87
2023/03/24 06:10:02;;;;;;;1.42;1.33;;;;;;;11.90;58.07;99553.06;5322133;26;33633;-85
2023/03/24 06:12:37;;;;;;;4.85;2.12;;;;;;;11.98;57.53;99553.53;5322171;26;33849;-86
2023/03/24 06:15:09;;;;;;;3.42;2.60;;;;;;;12.30;56.90;99549.16;5320273;26;32498;-86
2023/03/24 06:17:41;;;;;;;1.98;1.62;;;;;;;12.64;56.56;99554.38;5301265;26;32650;-86
2023/03/24 06:20:14;;;;;;;1.48;1.30;;;;;;;12.75;54.95;99552.81;5304166;26;34086;-86
2023/03/24 06:22:49;;;;;;;1.40;1.30;;;;;;;13.01;53.61;99561.94;5303295;26;33640;-87
2023/03/24 06:25:20;;;;;;;1.77;1.67;;;;;;;13.07;53.44;99556.28;5321266;26;34422;-87
2023/03/24 06:30:37;;;;;;;1.12;1.05;;;;;;;13.06;52.15;99557.22;5305668;26;34523;-86
2023/03/24 06:33:12;;;;;;;5.65;1.17;;;;;;;13.39;51.42;99553.59;5303583;26;32803;-86
2023/03/24 06:35:49;;;;;;;5.55;2.55;;;;;;;13.50;51.65;99559.09;5340466;26;34416;-87
2023/03/24 06:38:22;;;;;;;4.85;1.62;;;;;;;13.53;51.00;99558.03;5320645;26;33705;-87
2023/03/24 06:41:02;;;;;;;0.88;0.88;;;;;;;13.87;49.28;99545.44;5302683;26;32804;-86
2023/03/24 06:43:30;;;;;;;21.73;2.55;;;;;;;14.20;48.21;99537.16;5323183;26;33541;-86
2023/03/24 06:46:01;;;;;;;2.40;2.20;;;;;;;13.87;50.04;99540.12;5305551;26;33656;-86
2023/03/24 06:48:30;;;;;;;1.73;1.62;;;;;;;13.68;49.63;99535.06;5323175;26;32758;-87
2023/03/24 06:51:10;;;;;;;2.20;2.00;;;;;;;13.98;49.32;99533.19;5305415;26;32768;-85
2023/03/24 06:53:44;;;;;;;0.85;0.82;;;;;;;13.86;49.56;99533.91;5288684;26;32630;-86
2023/03/24 06:56:16;;;;;;;4.87;1.95;;;;;;;14.37;48.59;99525.47;5321164;26;33967;-86
2023/03/24 06:58:48;;;;;;;1.17;1.17;;;;;;;14.21;49.00;99533.56;5302901;26;32757;-86
2023/03/24 07:01:19;;;;;;;1.62;1.52;;;;;;;14.51;49.28;99517.50;5302313;26;33997;-85
2023/03/24 07:03:49;;;;;;;2.72;2.28;;;;;;;14.33;48.94;99512.38;5320712;26;34602;-84
2023/03/24 07:06:21;;;;;;;1.27;1.25;;;;;;;14.59;48.52;99513.41;5321172;26;34744;-84
2023/03/24 07:08:52;;;;;;;1.60;1.50;;;;;;;14.36;48.74;99519.31;5321681;26;33309;-85
2023/03/24 07:11:20;;;;;;;2.08;1.98;;;;;;;15.27;47.34;99514.25;5338961;26;33346;-85
2023/03/24 07:13:56;;;;;;;4.70;2.60;;;;;;;15.11;47.81;99511.78;5314154;26;33974;-86
2023/03/24 07:16:25;;;;;;;3.75;2.83;;;;;;;15.54;45.95;99507.06;5303269;26;32469;-84
2023/03/24 07:18:56;;;;;;;2.03;1.83;;;;;;;15.08;47.03;99515.47;5321058;26;34056;-84
2023/03/24 07:21:24;;;;;;;2.87;2.45;;;;;;;15.36;46.74;99513.63;5319816;26;32883;-85
2023/03/24 07:23:53;;;;;;;1.05;1.05;;;;;;;15.20;46.69;99518.28;5338672;26;33117;-85
2023/03/24 07:26:26;;;;;;;;;;;;;;;15.57;46.06;99495.31;5324254;26;34507;-85
2023/03/24 07:28:58;;;;;;;2.40;2.20;;;;;;;15.51;46.42;99509.91;5323613;26;33579;-86
2023/03/24 07:31:36;;;;;;;6.90;2.87;;;;;;;15.89;45.91;99495.78;5306045;26;33827;-85
2023/03/24 07:34:11;;;;;;;1.25;1.25;;;;;;;16.16;44.77;99498.31;5324298;26;33971;-86
2023/03/24 07:36:42;;;;;;;2.80;2.47;;;;;;;15.77;45.67;99497.50;5288190;26;33782;-86
2023/03/24 07:39:15;;;;;;;32.55;3.05;;;;;;;15.62;45.73;99493.22;5306575;26;33988;-86
2023/03/24 07:41:44;;;;;;;9.40;3.33;;;;;;;16.20;45.34;99498.94;5305303;26;34147;-86
2023/03/24 07:46:59;;;;;;;3.40;2.75;;;;;;;16.52;44.00;99491.25;5306425;26;32750;-86
2023/03/24 07:49:29;;;;;;;5.20;3.72;;;;;;;16.75;43.48;99495.78;5306074;26;33679;-86
2023/03/24 07:51:58;;;;;;;3.03;2.83;;;;;;;17.09;42.13;99498.59;5305113;26;33203;-86
2023/03/24 07:54:28;;;;;;;6.18;2.05;;;;;;;17.17;42.32;99501.56;5306400;26;33064;-86
2023/03/24 07:56:59;;;;;;;1.95;1.65;;;;;;;17.52;41.68;99498.87;5304346;26;33071;-86
2023/03/24 07:59:30;;;;;;;1.85;1.75;;;;;;;17.38;41.96;99496.41;5322978;26;32854;-86
2023/03/24 08:02:03;;;;;;;5.57;3.83;;;;;;;17.47;41.82;99509.06;5324020;26;33876;-86
2023/03/24 08:04:37;;;;;;;2.40;1.42;;;;;;;17.91;41.29;99494.09;5305417;26;32818;-86
2023/03/24 08:07:07;;;;;;;2.03;1.90;;;;;;;18.26;40.94;99490.41;5305080;26;34416;-86
2023/03/24 08:09:37;;;;;;;1.08;0.75;;;;;;;18.41;41.18;99495.38;5287176;26;33501;-86
2023/03/24 08:12:12;;;;;;;8.40;3.62;;;;;;;18.12;39.37;99484.34;5305353;26;33148;-86
2023/03/24 08:14:49;;;;;;;3.35;1.37;;;;;;;17.96;38.96;99483.03;5325510;26;33506;-86
2023/03/24 08:17:31;;;;;;;1.58;1.08;;;;;;;18.19;38.97;99479.38;5309453;26;35341;-86
2023/03/24 08:20:01;;;;;;;3.17;2.42;;;;;;;18.66;38.37;99472.84;5305201;26;32547;-86
2023/03/24 08:22:41;;;;;;;1.42;0.80;;;;;;;18.30;38.82;99473.16;5306522;26;33190;-85
2023/03/24 08:25:12;;;;;;;0.85;0.85;;;;;;;18.41;39.01;99467.78;5286865;26;33487;-86
2023/03/24 08:27:50;;;;;;;4.57;1.60;;;;;;;18.64;39.00;99468.59;5304708;26;32952;-85
2023/03/24 08:30:22;;;;;;;1.70;1.62;;;;;;;18.86;38.16;99468.56;5305584;26;33237;-85
2023/03/24 08:33:00;;;;;;;2.28;1.70;;;;;;;18.58;37.81;99458.41;5323220;26;32955;-85
2023/03/24 08:35:33;;;;;;;2.70;2.05;;;;;;;18.74;38.19;99452.66;5323448;26;33066;-85
2023/03/24 08:38:01;;;;;;;1.30;1.12;;;;;;;18.81;38.85;99443.16;5298717;26;32842;-85
2023/03/24 08:40:35;;;;;;;17.10;1.92;;;;;;;18.54;38.97;99439.09;5322931;26;32607;-86
2023/03/24 08:43:13;;;;;;;1.45;1.25;;;;;;;19.18;38.12;99435.56;5300808;26;33126;-85
2023/03/24 08:45:42;;;;;;;;;;;;;;;19.47;37.94;99443.78;5323115;26;33774;-86
2023/03/24 08:48:11;;;;;;;2.17;1.98;;;;;;;18.79;38.32;99440.59;5304893;26;32830;-85
2023/03/24 08:50:44;;;;;;;2.62;2.03;;;;;;;19.12;37.65;99436.91;5304425;26;32785;-85
2023/03/24 08:53:14;;;;;;;2.05;1.20;;;;;;;19.50;37.35;99432.78;5323591;26;33611;-86
2023/03/24 08:55:44;;;;;;;4.25;1.52;;;;;;;19.14;38.93;99434.97;5304964;26;33184;-86
2023/03/24 08:58:15;;;;;;;1.50;1.13;;;;;;;18.61;38.56;99442.97;5341644;26;34353;-86
2023/03/24 09:00:48;;;;;;;1.40;1.30;;;;;;;18.83;38.43;99443.88;5315703;26;34664;-86
2023/03/24 09:03:20;;;;;;;3.10;2.90;;;;;;;19.09;38.35;99439.88;5304333;26;33937;-86
2023/03/24 09:05:59;;;;;;;1.48;1.37;;;;;;;18.94;38.48;99446.47;5306091;26;32692;-85
2023/03/24 09:08:27;;;;;;;6.18;2.50;;;;;;;19.05;37.96;99438.44;5341093;26;33831;-85
2023/03/24 09:10:57;;;;;;;2.75;1.85;;;;;;;19.33;38.13;99423.53;5304309;26;33600;-86
2023/03/24 09:13:26;;;;;;;1.87;1.73;;;;;;;19.29;38.60;99430.13;5304218;26;33753;-86
2023/03/24 09:16:01;;;;;;;3.00;1.00;;;;;;;19.45;37.82;99426.97;5321661;26;32765;-85
2023/03/24 09:18:32;;;;;;;1.80;1.52;;;;;;;19.40;37.13;99418.50;5322700;26;35199;-85
2023/03/24 09:21:08;;;;;;;1.17;1.08;;;;;;;19.23;38.28;99424.44;5321196;26;34837;-86
2023/03/24 09:23:37;;;;;;;1.48;1.37;;;;;;;19.56;37.15;99428.72;5303523;26;33175;-86
2023/03/24 09:26:06;;;;;;;1.37;1.27;;;;;;;19.15;38.19;99425.97;5323188;26;34203;-87
2023/03/24 09:28:36;;;;;;;1.80;1.70;;;;;;;19.45;37.86;99418.94;5302678;26;35011;-85
2023/03/24 09:31:05;;;;;;;1.92;1.27;;;;;;;19.66;37.80;99414.44;5305470;26;33457;-86
2023/03/24 09:33:39;;;;;;;1.02;0.50;;;;;;;20.18;36.91;99415.19;5325070;26;33921;-86
2023/03/24 09:36:09;;;;;;;1.02;0.85;;;;;;;20.38;37.24;99402.66;5323623;26;33925;-86
2023/03/24 09:38:40;;;;;;;0.80;0.80;;;;;;;20.24;36.79;99402.22;5305952;26;34201;-86
2023/03/24 09:41:18;;;;;;;1.77;1.67;;;;;;;20.65;36.28;99399.34;5305895;26;33917;-86
2023/03/24 09:43:55;;;;;;;2.15;1.95;;;;;;;20.97;36.08;99395.50;5323970;26;33617;-86
2023/03/24 09:46:33;;;;;;;1.42;1.33;;;;;;;20.26;36.61;99397.56;5304835;26;33176;-86
2023/03/24 09:49:02;;;;;;;2.28;1.73;;;;;;;20.62;35.55;99391.56;5322213;26;32922;-87
2023/03/24 09:51:36;;;;;;;2.60;1.65;;;;;;;20.84;35.81;99390.44;5305189;26;33736;-86
2023/03/24 09:54:06;;;;;;;3.10;1.67;;;;;;;21.06;35.69;99378.53;5322409;26;33542;-86
2023/03/24 09:56:39;;;;;;;1.87;1.77;;;;;;;21.01;35.82;99386.16;5305482;26;33841;-86
2023/03/24 09:59:21;;;;;;;1.35;1.25;;;;;;;21.43;34.67;99375.06;5304980;26;33134;-85
2023/03/24 10:01:51;;;;;;;1.33;1.23;;;;;;;21.56;34.53;99370.22;5306925;26;33593;-85
2023/03/24 10:04:25;;;;;;;1.58;1.48;;;;;;;21.29;34.71;99370.13;5305447;26;33003;-87
2023/03/24 10:07:09;;;;;;;2.80;2.03;;;;;;;21.37;35.20;99365.78;5306195;26;32657;-86
2023/03/24 10:09:40;;;;;;;2.28;1.48;;;;;;;21.60;34.47;99350.12;5324131;26;33581;-84
2023/03/24 10:12:36;;;;;;;6.20;1.08;;;;;;;21.79;35.58;99357.25;5304906;26;33685;-87
2023/03/24 10:15:10;;;;;;;3.30;1.90;;;;;;;21.47;34.67;99344.25;5324176;26;33495;-87
2023/03/24 10:20:54;;;;;;;0.93;0.75;;;;;;;22.03;35.36;99329.81;5341440;26;34307;-87
2023/03/24 10:23:41;;;;;;;0.55;0.55;;;;;;;22.06;33.46;99329.50;5320174;26;33865;-88
2023/03/24 10:26:29;;;;;;;1.35;0.70;;;;;;;22.36;33.31;99338.22;5302685;26;33040;-88
2023/03/24 10:29:11;;;;;;;3.47;1.73;;;;;;;22.57;32.65;99333.38;5302836;26;33246;-88
2023/03/24 10:31:52;;;;;;;4.40;2.42;;;;;;;21.76;32.93;99327.16;5303471;26;32948;-88
2023/03/24 10:34:28;;;;;;;2.25;1.23;;;;;;;22.35;32.62;99323.09;5303349;26;33704;-87
2023/03/24 10:37:02;;;;;;;3.92;1.55;;;;;;;22.71;32.07;99305.91;5303228;26;33218;-87
2023/03/24 10:39:42;;;;;;;0.85;0.73;;;;;;;22.94;31.52;99313.53;5304805;26;31650;-87
2023/03/24 10:42:20;;;;;;;3.42;0.90;;;;;;;22.91;31.30;99314.66;5303363;26;33906;-88
2023/03/24 10:44:51;;;;;;;0.95;0.40;;;;;;;22.74;31.43;99312.81;5302763;26;33568;-88
2023/03/24 10:47:25;;;;;;;0.30;0.20;;;;;;;23.04;31.38;99316.09;5321415;26;33729;-87
2023/03/24 10:50:00;;;;;;;2.03;1.77;;;;;;;23.30;31.34;99305.31;5320504;26;32754;-85
2023/03/24 10:52:49;;;;;;;2.15;1.27;;;;;;;23.39;31.06;99307.03;5323325;26;33719;-86
2023/03/24 10:55:34;;;;;;;0.68;0.68;;;;;;;23.08;30.63;99318.34;5287614;26;34151;-86
2023/03/24 10:58:20;;;;;;;1.87;1.23;;;;;;;23.05;30.56;99312.41;5320553;26;33908;-86
2023/03/24 11:00:50;;;;;;;0.60;0.60;;;;;;;23.03;31.44;99311.72;5302544;26;32987;-85
2023/03/24 11:03:29;;;;;;;0.10;0.10;;;;;;;23.13;30.86;99288.22;5320312;26;32683;-86
2023/03/24 11:06:03;;;;;;;1.60;1.50;;;;;;;23.76;30.21;99288.69;5321233;26;33235;-84
2023/03/24 11:08:37;;;;;;;0.50;0.50;;;;;;;24.32;29.76;99285.44;5305380;26;32749;-85
2023/03/24 11:11:14;;;;;;;1.20;1.20;;;;;;;24.03;28.74;99278.66;5304694;26;32844;-85
2023/03/24 11:13:55;;;;;;;0.47;0.35;;;;;;;23.62;29.10;99286.59;5306553;26;33205;-86
2023/03/24 11:16:35;;;;;;;6.75;1.33;;;;;;;23.58;29.43;99282.53;5305703;26;33033;-86
2023/03/24 11:19:19;;;;;;;0.73;0.73;;;;;;;23.69;29.19;99276.03;5324005;26;33939;-85
2023/03/24 11:22:08;;;;;;;0.45;0.30;;;;;;;23.54;28.67;99266.84;5316173;26;33011;-86
2023/03/24 11:24:40;;;;;;;0.85;0.85;;;;;;;23.83;28.68;99261.06;5305345;26;34151;-86
2023/03/24 11:27:13;;;;;;;0.40;0.40;;;;;;;24.04;28.35;99257.94;5302472;26;33849;-86
2023/03/24 11:29:52;;;;;;;1.02;0.98;;;;;;;24.12;28.89;99244.44;5304945;26;36261;-85
2023/03/24 11:32:28;;;;;;;0.75;0.47;;;;;;;24.35;28.72;99250.84;5320969;26;33163;-85
2023/03/24 11:35:10;;;;;;;0.60;0.57;;;;;;;24.76;27.68;99250.88;5285539;26;33571;-86
2023/03/24 11:37:42;;;;;;;0.20;0.20;;;;;;;24.68;27.53;99234.66;5303014;26;33285;-86
2023/03/24 11:40:14;;;;;;;2.58;1.27;;;;;;;25.12;27.33;99229.72;5320261;26;33973;-86
2023/03/24 11:42:46;;;;;;;0.47;0.37;;;;;;;25.07;27.20;99228.50;5320398;26;33180;-86
2023/03/24 11:45:23;;;;;;;0.77;0.40;;;;;;;25.51;26.05;99226.16;5284697;26;33553;-85
2023/03/24 11:47:58;;;;;;;1.90;0.70;;;;;;;25.10;26.41;99222.78;5320940;26;33965;-87
2023/03/24 11:50:33;;;;;;;6.00;1.30;;;;;;;25.16;26.32;99213.97;5320529;26;34562;-87
2023/03/24 11:53:12;;;;;;;5.30;1.20;;;;;;;25.06;25.96;99214.16;5319413;26;33674;-87
2023/03/24 11:55:57;;;;;;;0.93;0.93;;;;;;;25.11;26.15;99210.97;5301289;26;33659;-87
2023/03/24 11:58:39;;;;;;;9.18;1.98;;;;;;;25.03;25.55;99218.06;5285062;26;32769;-85
2023/03/24 12:01:20;;;;;;;4.07;0.88;;;;;;;25.49;25.71;99204.72;5302591;26;32924;-86
2023/03/24 12:04:12;;;;;;;1.12;0.73;;;;;;;25.54;26.35;99199.63;5302068;26;32843;-86
2023/03/24 12:07:06;;;;;;;1.35;0.68;;;;;;;25.58;25.61;99189.28;5302348;26;33590;-87
2023/03/24 12:09:41;;;;;;;0.60;0.60;;;;;;;25.58;25.86;99194.69;5285461;26;33828;-87
2023/03/24 12:12:32;;;;;;;0.20;0.20;;;;;;;24.75;26.06;99193.31;5339817;26;33833;-87
2023/03/24 12:15:20;;;;;;;0.15;0.15;;;;;;;25.04;26.68;99181.09;5320554;26;34191;-87
2023/03/24 12:18:07;;;;;;;0.55;0.28;;;;;;;25.50;25.01;99175.84;5321591;26;34135;-87
2023/03/24 12:20:55;;;;;;;0.20;0.17;;;;;;;26.38;24.26;99174.50;5302611;26;34492;-86
2023/03/24 12:23:39;;;;;;;;;;;;;;;26.36;24.22;99166.59;5303402;26;33001;-86